METAR Rapporter

 

EKOD - Odense/Beldringe, Denmark
Distance from station: NNV 51km
Opdateret: 14/12/2017 13:50
NOT Current
Delvist skyet
Delvist skyet
 Vind retning VSV
Vind: VSV 22 km/h
Temperatur: 4°C
Wind Chill: -1°C
Dugpunkt: 2°C
Fugtighed: 87%
Barometer: 982 hPa
Clouds: Delvist skyet
Visibility: 10 km
Cloud details: Few Clouds 914 m
Delvist skyet 1524 m
2017/12/14 12:50 EKOD 141250Z 24012KT 9999 FEW030 SCT050CB 04/02 Q0982 R06/290095
EKSB - Sonderborg Airpo, Denmark
Distance from station: V 53km
Opdateret: 14/12/2017 23:20
Mest skyet
Mest skyet
 Vind retning SSV
Vind: SSV 17 km/h
Temperatur: 4°C
Wind Chill: 0°C
Dugpunkt: 3°C
Fugtighed: 93%
Barometer: 986 hPa
Clouds: Mest skyet
Visibility: 16 miles
Cloud details: Mest skyet 305 m
2017/12/14 22:20 EKSB 142220Z AUTO 21009KT 9999NDV BKN010/// 04/03 Q0986 RESHRA
 
EKSP - Skrydstrup(Dan-A, Denmark
Distance from station: VNV 88km
Opdateret: 14/12/2017 23:20
Delvist skyet
Delvist skyet
 Vind retning SSV
Vind: SSV 11 km/h
Temperatur: 1°C
Wind Chill: -2°C
Dugpunkt: 0°C
Fugtighed: 93%
Barometer: 986 hPa
Clouds: Delvist skyet
Visibility: 10 km
Cloud details: Few Clouds 457 m
Delvist skyet 975 m
2017/12/14 22:20 EKSP 142220Z 20006KT 9999 FEW015CB SCT032 01/00 Q0986
EKVD - Vamdrup (aut/Man, Denmark
Distance from station: VNV 92km
Opdateret: 14/12/2017 23:20

 Vind retning SSV
Vind: SSV 19 km/h
Temperatur: 1°C
Wind Chill: -4°C
Dugpunkt: 1°C
Fugtighed: 100%
Barometer: 986 hPa
2017/12/14 22:20 EKVD 142220Z AUTO 21010KT //// ///////// 01/01 Q0986